Time;durP1;ratioP1;P1;durP2;ratioP2;P2;SDS_P1;SDS_P2;PMS_P1;PMS_P2;Temp;Humidity;BMP_temperature;BMP_pressure;BME280_temperature;BME280_humidity;BME280_pressure;Samples;Min_cycle;Max_cycle;Signal;HPM_P1;HPM_P2
2023/09/28 00:01:45;;;;;;;5.23;2.57;;;13.40;99.90;;;;;;5016246;28;20453;-65
2023/09/28 00:04:11;;;;;;;6.43;3.17;;;13.30;99.90;;;;;;5015853;28;20992;-65
2023/09/28 00:06:37;;;;;;;8.67;3.30;;;13.70;99.90;;;;;;5013976;28;20525;-65
2023/09/28 00:09:03;;;;;;;5.00;2.47;;;13.40;99.90;;;;;;5011195;28;20220;-65
2023/09/28 00:11:29;;;;;;;3.70;2.30;;;13.40;99.90;;;;;;5013709;28;20632;-65
2023/09/28 00:13:55;;;;;;;6.30;3.27;;;13.70;99.90;;;;;;5012330;28;20480;-65
2023/09/28 00:16:20;;;;;;;4.03;2.30;;;13.40;99.90;;;;;;5013611;28;20194;-65
2023/09/28 00:18:46;;;;;;;5.50;2.00;;;13.40;99.90;;;;;;5020104;28;20280;-65
2023/09/28 00:21:12;;;;;;;6.63;2.40;;;13.40;99.90;;;;;;5011880;28;20195;-65
2023/09/28 00:23:37;;;;;;;7.30;2.47;;;13.50;99.90;;;;;;5021776;28;20218;-65
2023/09/28 00:26:03;;;;;;;6.10;2.40;;;13.50;99.90;;;;;;5012491;28;20198;-65
2023/09/28 00:28:28;;;;;;;7.63;2.90;;;13.60;99.90;;;;;;5026995;28;20190;-65
2023/09/28 00:30:55;;;;;;;3.37;2.37;;;13.70;99.90;;;;;;5011160;28;20187;-63
2023/09/28 00:33:20;;;;;;;3.80;2.50;;;14.00;99.90;;;;;;5023179;28;20259;-63
2023/09/28 00:35:46;;;;;;;3.60;2.40;;;14.00;99.90;;;;;;5012311;28;20527;-63
2023/09/28 00:38:12;;;;;;;6.60;2.30;;;14.10;99.90;;;;;;5014525;28;20349;-63
2023/09/28 00:40:40;;;;;;;4.83;2.43;;;14.20;99.90;;;;;;5011895;28;20627;-63
2023/09/28 00:43:07;;;;;;;5.63;1.93;;;14.20;99.90;;;;;;5015393;28;20214;-63
2023/09/28 00:45:33;;;;;;;3.63;1.90;;;14.30;99.90;;;;;;5011043;28;20441;-63
2023/09/28 00:48:05;;;;;;;4.43;1.93;;;14.40;99.90;;;;;;5010449;28;20417;-63
2023/09/28 00:50:33;;;;;;;3.60;1.70;;;14.40;99.90;;;;;;4992240;28;20469;-63
2023/09/28 00:53:02;;;;;;;4.77;2.03;;;14.40;99.90;;;;;;5011062;28;20440;-63
2023/09/28 00:55:30;;;;;;;7.00;2.40;;;14.40;99.90;;;;;;5011537;28;20442;-63
2023/09/28 00:58:05;;;;;;;4.00;2.30;;;14.40;99.90;;;;;;5013115;28;20449;-63
2023/09/28 01:00:34;;;;;;;3.40;1.70;;;14.40;99.90;;;;;;5007630;28;20436;-63
2023/09/28 01:03:02;;;;;;;4.77;2.07;;;14.50;99.90;;;;;;5011987;28;20437;-63
2023/09/28 01:05:33;;;;;;;6.50;1.90;;;14.40;99.90;;;;;;5007512;28;20828;-63
2023/09/28 01:08:08;;;;;;;4.63;2.37;;;14.50;99.90;;;;;;5018800;28;21106;-63
2023/09/28 01:10:37;;;;;;;4.20;1.90;;;14.50;99.90;;;;;;5011310;28;20425;-63
2023/09/28 01:13:08;;;;;;;6.07;2.57;;;14.50;99.90;;;;;;5020376;28;20430;-63
2023/09/28 01:15:35;;;;;;;4.53;2.10;;;14.40;99.90;;;;;;5007926;28;20827;-63
2023/09/28 01:18:01;;;;;;;3.20;1.83;;;14.40;99.90;;;;;;5012176;28;20476;-63
2023/09/28 01:20:37;;;;;;;4.83;3.07;;;14.40;99.90;;;;;;5009603;28;20426;-63
2023/09/28 01:23:07;;;;;;;4.27;2.20;;;14.40;99.90;;;;;;5022908;28;20190;-63
2023/09/28 01:25:33;;;;;;;9.60;2.50;;;14.30;99.90;;;;;;5010904;28;20423;-63
2023/09/28 01:28:00;;;;;;;4.30;2.10;;;14.30;99.90;;;;;;5016868;28;21261;-63
2023/09/28 01:30:26;;;;;;;4.60;2.50;;;14.30;99.90;;;;;;5007777;28;20508;-63
2023/09/28 01:32:52;;;;;;;4.20;2.37;;;14.40;99.90;;;;;;5005272;28;20430;-63
2023/09/28 01:35:18;;;;;;;3.73;2.07;;;14.40;99.90;;;;;;5006911;28;20429;-63
2023/09/28 01:38:03;;;;;;;5.20;2.53;;;14.50;99.90;;;;;;5015395;28;20927;-63
2023/09/28 01:40:29;;;;;;;3.57;1.73;;;14.50;99.90;;;;;;5005662;28;20522;-63
2023/09/28 01:42:55;;;;;;;9.83;2.10;;;14.40;99.90;;;;;;5011883;28;20513;-63
2023/09/28 01:45:20;;;;;;;8.90;2.50;;;14.50;99.90;;;;;;5005239;28;20218;-63
2023/09/28 01:47:46;;;;;;;4.57;2.20;;;14.60;99.90;;;;;;5007142;28;20194;-63
2023/09/28 01:50:12;;;;;;;6.43;1.90;;;14.60;99.90;;;;;;5009710;28;20186;-63
2023/09/28 01:52:37;;;;;;;5.50;2.43;;;14.50;99.90;;;;;;5013857;28;20269;-63
2023/09/28 01:55:03;;;;;;;4.80;2.10;;;14.50;99.90;;;;;;5011829;28;20237;-63
2023/09/28 01:57:29;;;;;;;16.33;2.77;;;14.50;99.90;;;;;;5018246;28;20196;-63
2023/09/28 01:59:54;;;;;;;4.90;2.43;;;14.50;99.90;;;;;;5007488;28;20195;-63
2023/09/28 02:02:21;;;;;;;5.00;2.33;;;14.50;99.90;;;;;;5015992;28;20194;-63
2023/09/28 02:04:46;;;;;;;6.80;2.37;;;14.30;99.90;;;;;;5010080;28;20221;-63
2023/09/28 02:07:13;;;;;;;4.77;2.80;;;14.30;99.90;;;;;;5018322;28;20433;-63
2023/09/28 02:09:39;;;;;;;6.23;2.53;;;14.30;99.90;;;;;;5011069;28;20191;-63
2023/09/28 02:12:06;;;;;;;10.13;2.87;;;14.30;99.90;;;;;;5015085;28;20865;-63
2023/09/28 02:14:32;;;;;;;9.33;2.40;;;14.40;99.90;;;;;;5008424;28;20452;-63
2023/09/28 02:16:58;;;;;;;3.50;2.37;;;14.50;99.90;;;;;;5015301;28;20476;-63
2023/09/28 02:19:23;;;;;;;9.87;2.67;;;14.50;99.90;;;;;;5011816;28;20286;-63
2023/09/28 02:21:51;;;;;;;4.00;1.83;;;14.50;99.90;;;;;;5015253;28;20186;-63
2023/09/28 02:24:16;;;;;;;6.50;2.30;;;14.50;99.90;;;;;;5013912;28;20568;-63
2023/09/28 02:26:44;;;;;;;2.93;1.77;;;14.40;99.90;;;;;;5013662;28;20956;-63
2023/09/28 02:29:10;;;;;;;10.80;2.30;;;14.40;99.90;;;;;;5015801;28;20195;-63
2023/09/28 02:31:40;;;;;;;5.60;2.20;;;14.40;99.90;;;;;;5010269;28;20426;-63
2023/09/28 02:34:07;;;;;;;5.67;2.37;;;14.40;99.90;;;;;;5012716;28;20446;-63
2023/09/28 02:36:32;;;;;;;6.10;2.00;;;14.40;99.90;;;;;;5012526;28;20430;-63
2023/09/28 02:38:58;;;;;;;7.13;2.70;;;14.50;99.90;;;;;;5018540;28;20764;-63
2023/09/28 02:41:24;;;;;;;4.80;2.40;;;14.30;99.90;;;;;;5011100;28;20210;-63
2023/09/28 02:43:50;;;;;;;4.63;2.40;;;14.20;99.90;;;;;;5009961;28;20215;-63
2023/09/28 02:46:16;;;;;;;5.00;2.20;;;14.10;99.90;;;;;;5009886;28;20857;-63
2023/09/28 02:48:41;;;;;;;5.33;2.23;;;14.10;99.90;;;;;;5010469;28;20477;-63
2023/09/28 02:51:07;;;;;;;4.70;2.37;;;14.10;99.90;;;;;;5009115;28;20222;-63
2023/09/28 02:53:35;;;;;;;4.30;2.43;;;14.10;99.90;;;;;;5008403;28;20325;-63
2023/09/28 02:56:01;;;;;;;8.10;2.20;;;14.00;99.90;;;;;;5014802;28;20218;-63
2023/09/28 02:58:26;;;;;;;7.03;2.30;;;13.90;99.90;;;;;;5020656;28;20520;-63
2023/09/28 03:00:53;;;;;;;6.40;2.40;;;14.00;99.90;;;;;;5009404;28;20424;-63
2023/09/28 03:03:19;;;;;;;4.83;2.27;;;14.00;99.90;;;;;;5012874;28;20264;-63
2023/09/28 03:05:45;;;;;;;9.57;2.83;;;13.90;99.90;;;;;;5004177;28;20426;-63
2023/09/28 03:08:14;;;;;;;5.00;2.60;;;13.80;99.90;;;;;;5011579;28;20530;-63
2023/09/28 03:10:43;;;;;;;4.00;2.67;;;13.80;99.90;;;;;;5007067;28;20688;-63
2023/09/28 03:13:11;;;;;;;3.33;1.77;;;13.80;99.90;;;;;;5012062;28;20533;-63
2023/09/28 03:15:39;;;;;;;3.90;2.30;;;13.80;99.90;;;;;;5006956;28;20436;-63
2023/09/28 03:18:05;;;;;;;5.83;2.67;;;13.90;99.90;;;;;;5012665;28;20487;-63
2023/09/28 03:20:30;;;;;;;3.93;2.40;;;13.80;99.90;;;;;;5007619;28;20469;-63
2023/09/28 03:22:56;;;;;;;11.47;3.00;;;13.80;99.90;;;;;;5013344;28;20193;-63
2023/09/28 03:25:22;;;;;;;4.83;2.30;;;13.80;99.90;;;;;;5011631;28;20187;-63
2023/09/28 03:27:52;;;;;;;4.07;1.97;;;13.80;99.90;;;;;;5018488;28;20186;-63
2023/09/28 03:30:20;;;;;;;5.83;2.63;;;13.80;99.90;;;;;;5016959;28;20187;-63
2023/09/28 03:32:47;;;;;;;2.73;1.90;;;13.80;99.90;;;;;;5015758;28;20440;-63
2023/09/28 03:35:13;;;;;;;5.13;2.20;;;13.80;99.90;;;;;;5006994;28;20429;-63
2023/09/28 03:37:40;;;;;;;8.60;2.80;;;13.90;99.90;;;;;;5016501;28;20429;-63
2023/09/28 03:40:10;;;;;;;4.37;2.17;;;13.80;99.90;;;;;;5016117;28;20434;-63
2023/09/28 03:42:38;;;;;;;4.17;2.20;;;13.80;99.90;;;;;;5013607;28;20460;-63
2023/09/28 03:45:05;;;;;;;2.87;1.80;;;13.70;99.90;;;;;;5007918;28;20628;-63
2023/09/28 03:47:34;;;;;;;4.63;2.47;;;13.80;99.90;;;;;;5015739;28;20521;-63
2023/09/28 03:50:00;;;;;;;5.67;2.20;;;13.80;99.90;;;;;;5013588;28;20418;-63
2023/09/28 03:52:25;;;;;;;5.53;2.37;;;13.90;99.90;;;;;;5023653;28;21111;-63
2023/09/28 03:54:52;;;;;;;5.50;2.20;;;13.90;99.90;;;;;;5013274;28;20206;-63
2023/09/28 03:57:17;;;;;;;5.00;2.50;;;13.80;99.90;;;;;;5021929;28;20197;-63
2023/09/28 03:59:43;;;;;;;4.40;2.03;;;13.90;99.90;;;;;;5007767;28;20434;-63
2023/09/28 04:02:08;;;;;;;5.70;2.53;;;13.80;99.90;;;;;;5018097;28;20474;-63
2023/09/28 04:04:34;;;;;;;5.90;2.40;;;13.80;99.90;;;;;;5011571;28;20214;-63
2023/09/28 04:07:00;;;;;;;5.23;2.10;;;13.70;99.90;;;;;;5013052;28;20187;-63
2023/09/28 04:09:25;;;;;;;5.40;2.03;;;13.70;99.90;;;;;;5011937;28;20183;-63
2023/09/28 04:11:51;;;;;;;7.40;3.00;;;13.60;99.90;;;;;;5009076;28;20525;-63
2023/09/28 04:14:16;;;;;;;5.50;2.37;;;13.70;99.90;;;;;;5010546;28;20195;-63
2023/09/28 04:16:42;;;;;;;7.10;2.80;;;13.70;99.90;;;;;;5008585;28;20206;-63
2023/09/28 04:19:07;;;;;;;8.50;3.03;;;13.60;99.90;;;;;;5010335;28;20191;-63
2023/09/28 04:21:33;;;;;;;6.57;2.67;;;13.60;99.90;;;;;;5011087;28;20282;-63
2023/09/28 04:23:59;;;;;;;6.83;2.30;;;13.60;99.90;;;;;;5020276;28;20225;-63
2023/09/28 04:26:25;;;;;;;5.83;2.67;;;13.60;99.90;;;;;;5002039;28;20469;-63
2023/09/28 04:28:51;;;;;;;6.27;2.70;;;13.90;99.90;;;;;;5011340;28;20469;-63
2023/09/28 04:31:18;;;;;;;5.37;2.63;;;13.50;99.90;;;;;;5011325;28;20194;-63
2023/09/28 04:33:44;;;;;;;4.17;2.03;;;13.50;99.90;;;;;;5019211;28;20993;-63
2023/09/28 04:36:10;;;;;;;5.73;2.50;;;13.40;99.90;;;;;;5004921;28;20443;-63
2023/09/28 04:38:36;;;;;;;4.67;2.60;;;13.40;99.90;;;;;;5009744;28;20187;-63
2023/09/28 04:41:02;;;;;;;7.43;2.67;;;14.00;99.90;;;;;;5003423;28;20283;-63
2023/09/28 04:43:28;;;;;;;4.67;2.33;;;13.60;99.90;;;;;;5008453;28;20824;-63
2023/09/28 04:45:53;;;;;;;7.83;2.60;;;13.40;99.90;;;;;;5005903;28;20180;-63
2023/09/28 04:48:19;;;;;;;8.03;2.80;;;13.40;99.90;;;;;;5004810;28;20183;-62
2023/09/28 04:50:45;;;;;;;4.80;2.47;;;13.40;99.90;;;;;;5005786;28;20888;-63
2023/09/28 04:53:10;;;;;;;6.73;2.30;;;13.50;99.90;;;;;;5011909;28;20194;-63
2023/09/28 04:55:36;;;;;;;5.37;2.70;;;13.50;99.90;;;;;;5006756;28;20187;-63
2023/09/28 04:58:02;;;;;;;4.57;1.90;;;13.60;99.90;;;;;;5012378;28;20179;-63
2023/09/28 05:00:27;;;;;;;4.67;2.73;;;13.60;99.90;;;;;;5004986;28;20632;-63
2023/09/28 05:02:53;;;;;;;8.53;3.00;;;13.60;99.90;;;;;;5011416;28;20187;-63
2023/09/28 05:05:19;;;;;;;7.27;2.40;;;13.60;99.90;;;;;;5010293;28;20587;-63
2023/09/28 05:07:44;;;;;;;6.93;3.10;;;13.70;99.90;;;;;;5007895;28;20190;-63
2023/09/28 05:10:11;;;;;;;5.83;2.80;;;13.60;99.90;;;;;;5011376;28;20193;-63
2023/09/28 05:12:37;;;;;;;5.53;2.70;;;13.70;99.90;;;;;;5021885;28;20252;-63
2023/09/28 05:15:04;;;;;;;6.77;2.40;;;14.40;99.90;;;;;;5007778;28;20496;-63
2023/09/28 05:17:29;;;;;;;3.90;2.13;;;13.80;99.90;;;;;;5013320;28;20446;-63
2023/09/28 05:19:55;;;;;;;6.03;2.33;;;13.90;99.90;;;;;;5009259;28;20980;-63
2023/09/28 05:22:21;;;;;;;7.77;3.37;;;13.90;99.90;;;;;;5015254;28;20187;-63
2023/09/28 05:24:46;;;;;;;6.53;2.20;;;14.00;99.90;;;;;;5018097;28;20211;-63
2023/09/28 05:27:12;;;;;;;13.83;2.20;;;14.20;99.90;;;;;;5018796;28;20649;-63
2023/09/28 05:29:37;;;;;;;5.50;2.33;;;14.20;99.90;;;;;;5017746;28;20330;-63
2023/09/28 05:32:05;;;;;;;9.13;2.83;;;14.20;99.90;;;;;;5016439;28;20190;-63
2023/09/28 05:34:31;;;;;;;4.80;2.03;;;14.20;99.90;;;;;;5015730;28;20187;-63
2023/09/28 05:36:56;;;;;;;4.87;2.07;;;14.20;99.90;;;;;;5016458;28;20424;-63
2023/09/28 05:39:22;;;;;;;5.73;2.30;;;14.10;99.90;;;;;;5009039;28;20187;-63
2023/09/28 05:41:48;;;;;;;5.10;1.90;;;14.10;99.90;;;;;;5006462;28;20222;-63
2023/09/28 05:44:14;;;;;;;3.97;2.73;;;14.10;99.90;;;;;;5015350;28;20210;-63
2023/09/28 05:46:39;;;;;;;5.43;2.60;;;14.10;99.90;;;;;;5009832;28;20187;-64
2023/09/28 05:49:05;;;;;;;5.77;3.00;;;14.00;99.90;;;;;;5003818;28;20456;-64
2023/09/28 05:51:31;;;;;;;5.10;2.20;;;14.10;99.90;;;;;;5011952;28;20191;-64
2023/09/28 05:53:57;;;;;;;7.17;2.40;;;14.00;99.90;;;;;;5011622;28;20188;-64
2023/09/28 05:56:22;;;;;;;4.23;1.70;;;14.10;99.90;;;;;;5006873;28;20228;-64
2023/09/28 05:58:48;;;;;;;6.80;2.73;;;14.00;99.90;;;;;;5011681;28;20598;-64
2023/09/28 06:01:17;;;;;;;8.90;2.93;;;14.00;99.90;;;;;;5007060;28;20183;-64
2023/09/28 06:03:42;;;;;;;4.50;2.13;;;13.90;99.90;;;;;;5020178;28;20305;-64
2023/09/28 06:06:18;;;;;;;6.10;2.57;;;13.90;99.90;;;;;;5012006;28;20608;-64
2023/09/28 06:08:48;;;;;;;5.83;2.80;;;13.90;99.90;;;;;;5021878;28;20278;-64
2023/09/28 06:11:15;;;;;;;5.77;2.57;;;13.80;99.90;;;;;;5010470;28;20887;-63
2023/09/28 06:13:41;;;;;;;4.97;2.87;;;13.70;99.90;;;;;;5020276;28;20430;-64
2023/09/28 06:16:09;;;;;;;6.40;2.80;;;13.60;99.90;;;;;;5007841;28;20448;-63
2023/09/28 06:18:36;;;;;;;5.00;2.63;;;13.60;99.90;;;;;;5020087;28;20917;-63
2023/09/28 06:21:01;;;;;;;8.60;3.07;;;13.70;99.90;;;;;;5009636;28;20430;-63
2023/09/28 06:23:27;;;;;;;9.23;3.60;;;13.80;99.90;;;;;;5019174;28;20472;-64
2023/09/28 06:25:53;;;;;;;4.23;2.10;;;13.90;99.90;;;;;;5009406;28;20181;-64
2023/09/28 06:28:19;;;;;;;5.77;2.77;;;14.00;99.90;;;;;;5020276;28;20194;-65
2023/09/28 06:30:45;;;;;;;5.23;2.37;;;14.10;99.90;;;;;;5006961;28;20298;-64
2023/09/28 06:33:10;;;;;;;4.77;2.10;;;14.20;99.90;;;;;;5009975;28;20191;-65
2023/09/28 06:35:36;;;;;;;5.83;2.30;;;14.50;99.90;;;;;;5014382;28;20436;-65
2023/09/28 06:38:02;;;;;;;5.90;2.60;;;14.70;99.90;;;;;;5013146;28;20196;-65
2023/09/28 06:40:27;;;;;;;4.70;2.07;;;15.00;99.90;;;;;;5008814;28;20631;-65
2023/09/28 06:42:53;;;;;;;6.90;2.37;;;15.20;99.90;;;;;;5014887;28;20206;-65
2023/09/28 06:45:18;;;;;;;3.40;1.83;;;15.30;99.90;;;;;;5009470;28;20219;-65
2023/09/28 06:47:44;;;;;;;4.33;2.50;;;15.40;99.90;;;;;;5006526;28;21012;-65
2023/09/28 06:50:11;;;;;;;3.57;1.80;;;15.50;99.90;;;;;;5015617;28;20186;-63
2023/09/28 06:52:37;;;;;;;8.43;2.00;;;15.60;99.90;;;;;;5012185;28;20218;-63
2023/09/28 06:55:04;;;;;;;4.93;2.70;;;15.70;99.90;;;;;;5009495;28;20437;-63
2023/09/28 06:57:30;;;;;;;7.87;3.20;;;15.80;99.90;;;;;;5006619;28;20429;-63
2023/09/28 06:59:55;;;;;;;3.20;2.20;;;15.90;99.90;;;;;;5009765;28;20430;-63
2023/09/28 07:02:21;;;;;;;6.70;2.20;;;16.00;99.90;;;;;;5014029;28;20790;-63
2023/09/28 07:04:47;;;;;;;4.40;2.03;;;16.10;99.90;;;;;;5012559;28;20234;-63
2023/09/28 07:07:16;;;;;;;3.70;1.73;;;16.10;99.90;;;;;;5014702;28;20915;-63
2023/09/28 07:09:43;;;;;;;3.40;2.03;;;16.20;99.90;;;;;;5016934;28;20179;-63
2023/09/28 07:12:10;;;;;;;5.13;2.30;;;16.20;99.90;;;;;;5009787;28;20458;-63
2023/09/28 07:14:36;;;;;;;4.17;2.20;;;16.20;99.90;;;;;;5008321;28;20430;-63
2023/09/28 07:17:02;;;;;;;12.13;3.53;;;16.20;99.90;;;;;;5011855;28;20934;-63
2023/09/28 07:19:27;;;;;;;5.10;2.30;;;16.20;99.90;;;;;;5008997;28;20266;-63
2023/09/28 07:21:53;;;;;;;3.43;2.00;;;16.10;99.90;;;;;;5015879;28;20273;-63
2023/09/28 07:24:20;;;;;;;4.57;2.50;;;16.10;99.90;;;;;;5013617;28;20210;-63
2023/09/28 07:26:46;;;;;;;4.33;1.97;;;16.10;99.90;;;;;;5013097;28;20532;-63
2023/09/28 07:29:12;;;;;;;5.53;2.40;;;16.00;99.90;;;;;;5015070;28;20430;-63
2023/09/28 07:31:38;;;;;;;7.30;2.70;;;15.90;99.90;;;;;;5010905;28;20199;-63
2023/09/28 07:34:04;;;;;;;4.53;1.20;;;15.80;99.90;;;;;;5011565;28;20453;-63
2023/09/28 07:36:30;;;;;;;20.07;3.10;;;15.80;99.90;;;;;;5013249;28;20422;-63
2023/09/28 07:38:55;;;;;;;10.00;2.23;;;15.80;99.90;;;;;;5014051;28;20614;-63
2023/09/28 07:41:21;;;;;;;4.17;2.47;;;15.80;99.90;;;;;;5015442;28;20270;-63
2023/09/28 07:43:47;;;;;;;3.13;1.87;;;15.80;99.90;;;;;;5014552;28;21198;-63
2023/09/28 07:46:13;;;;;;;4.03;1.93;;;15.80;99.90;;;;;;4999713;28;20245;-63
2023/09/28 07:48:40;;;;;;;3.67;2.03;;;16.10;99.90;;;;;;5012727;28;20321;-63
2023/09/28 07:51:05;;;;;;;5.03;2.03;;;16.90;99.90;;;;;;5010840;28;20501;-64
2023/09/28 07:53:31;;;;;;;5.37;1.97;;;17.60;99.90;;;;;;5013378;28;20517;-63
2023/09/28 07:55:57;;;;;;;6.23;2.10;;;18.40;99.90;;;;;;5001429;28;20187;-63
2023/09/28 07:58:23;;;;;;;6.43;2.10;;;18.80;99.90;;;;;;5007017;28;20191;-63
2023/09/28 08:00:49;;;;;;;7.60;2.87;;;19.20;99.70;;;;;;5005770;28;20195;-64
2023/09/28 08:03:15;;;;;;;5.20;2.40;;;19.90;99.50;;;;;;5020510;28;20272;-64
2023/09/28 08:05:40;;;;;;;6.53;2.00;;;20.30;97.60;;;;;;5008505;28;20187;-64
2023/09/28 08:08:06;;;;;;;5.80;2.47;;;20.80;97.50;;;;;;5016716;28;20768;-64
2023/09/28 08:10:34;;;;;;;7.80;3.00;;;20.70;96.60;;;;;;5011665;28;20656;-64
2023/09/28 08:13:01;;;;;;;7.60;2.97;;;20.40;96.00;;;;;;5018283;28;20230;-64
2023/09/28 08:15:27;;;;;;;6.40;2.13;;;19.90;96.60;;;;;;5008673;28;20465;-64
2023/09/28 08:17:53;;;;;;;6.30;3.00;;;19.50;98.80;;;;;;5016565;28;20494;-64
2023/09/28 08:20:20;;;;;;;5.60;1.90;;;19.20;99.60;;;;;;5029408;28;20429;-64
2023/09/28 08:22:46;;;;;;;4.57;2.07;;;19.30;99.90;;;;;;5021963;28;20178;-64
2023/09/28 08:25:14;;;;;;;10.63;2.30;;;19.60;99.10;;;;;;5011904;28;20465;-64
2023/09/28 08:27:40;;;;;;;4.73;2.37;;;20.20;98.60;;;;;;5019463;28;20444;-64
2023/09/28 08:30:07;;;;;;;3.30;1.57;;;20.70;97.00;;;;;;5007011;28;20449;-64
2023/09/28 08:32:32;;;;;;;5.90;2.20;;;20.90;95.50;;;;;;5012979;28;20463;-64
2023/09/28 08:34:58;;;;;;;4.77;2.10;;;21.30;94.80;;;;;;5007864;28;20519;-64
2023/09/28 08:37:24;;;;;;;6.43;2.90;;;21.50;95.50;;;;;;5015179;28;20187;-64
2023/09/28 08:39:51;;;;;;;3.60;2.10;;;21.90;94.90;;;;;;5011006;28;20193;-64
2023/09/28 08:42:23;;;;;;;4.70;1.87;;;21.90;93.90;;;;;;5021933;28;20190;-63
2023/09/28 08:44:54;;;;;;;11.00;2.57;;;22.00;94.50;;;;;;5010443;28;20546;-64
2023/09/28 08:47:22;;;;;;;3.40;1.67;;;22.60;94.00;;;;;;5015816;28;20424;-63
2023/09/28 08:49:50;;;;;;;4.20;2.10;;;22.80;93.20;;;;;;5010172;28;20440;-64
2023/09/28 08:52:17;;;;;;;2.70;1.50;;;23.20;92.80;;;;;;5016924;28;20412;-64
2023/09/28 08:54:42;;;;;;;4.87;2.00;;;23.40;91.90;;;;;;5018123;28;20432;-64
2023/09/28 08:57:10;;;;;;;5.00;2.43;;;23.50;93.00;;;;;;5017701;28;20472;-64
2023/09/28 08:59:37;;;;;;;4.10;2.27;;;23.50;92.30;;;;;;5009751;28;20208;-64
2023/09/28 09:02:04;;;;;;;8.07;2.47;;;23.60;91.30;;;;;;5010819;28;20428;-64
2023/09/28 09:04:34;;;;;;;3.90;1.97;;;23.70;92.40;;;;;;5003077;28;20460;-64
2023/09/28 09:07:03;;;;;;;5.43;1.93;;;24.00;91.20;;;;;;5015285;28;20663;-64
2023/09/28 09:09:32;;;;;;;2.93;1.33;;;23.80;90.90;;;;;;5006197;28;20425;-64
2023/09/28 09:11:57;;;;;;;3.27;1.53;;;24.10;91.10;;;;;;5002093;28;20183;-64
2023/09/28 09:14:28;;;;;;;7.60;2.13;;;24.00;90.70;;;;;;5007998;28;20656;-64
2023/09/28 09:16:53;;;;;;;7.35;2.15;;;24.60;90.10;;;;;;5005824;28;20202;-64
2023/09/28 09:19:19;;;;;;;4.22;2.05;;;24.50;89.20;;;;;;5011033;28;20191;-64
2023/09/28 09:21:45;;;;;;;7.22;2.38;;;24.60;90.10;;;;;;5015624;28;20178;-64
2023/09/28 09:24:14;;;;;;;4.82;1.55;;;24.70;88.90;;;;;;5010486;28;20203;-64
2023/09/28 09:26:45;;;;;;;3.67;1.92;;;25.20;87.00;;;;;;5014479;28;20181;-64
2023/09/28 09:29:13;;;;;;;8.35;1.67;;;24.90;87.10;;;;;;5012395;28;20279;-64
2023/09/28 09:31:42;;;;;;;4.30;2.03;;;24.50;88.80;;;;;;5015328;28;20674;-64
2023/09/28 09:34:12;;;;;;;4.03;2.27;;;24.20;90.20;;;;;;5011752;28;20194;-64
2023/09/28 09:36:39;;;;;;;2.80;1.67;;;23.90;88.70;;;;;;4998213;28;20179;-63
2023/09/28 09:39:06;;;;;;;2.77;1.50;;;23.30;90.70;;;;;;5003844;28;20187;-63
2023/09/28 09:41:45;;;;;;;7.50;1.90;;;23.20;90.50;;;;;;5014119;28;20499;-65
2023/09/28 09:44:15;;;;;;;4.73;2.07;;;23.10;90.70;;;;;;5010527;28;20876;-66
2023/09/28 09:46:41;;;;;;;5.67;1.97;;;22.90;91.30;;;;;;5014779;28;20424;-66
2023/09/28 09:49:07;;;;;;;3.50;1.43;;;22.90;90.70;;;;;;5008502;28;20515;-64
2023/09/28 09:51:34;;;;;;;5.13;1.63;;;22.80;91.60;;;;;;5018444;28;20182;-65
2023/09/28 09:53:59;;;;;;;4.77;1.70;;;22.90;91.10;;;;;;5010994;28;20433;-64
2023/09/28 09:56:27;;;;;;;4.10;2.13;;;23.10;90.60;;;;;;5014789;28;20425;-64
2023/09/28 09:58:56;;;;;;;2.73;1.53;;;23.10;91.00;;;;;;5012926;28;20610;-64
2023/09/28 10:01:22;;;;;;;4.27;1.50;;;23.00;91.50;;;;;;5012946;28;20425;-64
2023/09/28 10:03:50;;;;;;;3.73;1.77;;;23.00;91.30;;;;;;5017734;28;20532;-64
2023/09/28 10:06:20;;;;;;;4.63;1.70;;;22.90;91.40;;;;;;5010101;28;20450;-64
2023/09/28 10:08:49;;;;;;;5.20;2.10;;;23.00;90.70;;;;;;5018663;28;20426;-64
2023/09/28 10:11:16;;;;;;;4.27;1.70;;;23.00;91.20;;;;;;5013591;28;20417;-64
2023/09/28 10:13:43;;;;;;;5.63;1.63;;;23.20;91.30;;;;;;5018088;28;20483;-64
2023/09/28 10:16:14;;;;;;;2.13;1.27;;;23.30;91.20;;;;;;5015757;28;20513;-64
2023/09/28 10:18:43;;;;;;;2.17;1.10;;;23.50;90.30;;;;;;4998411;28;20507;-65
2023/09/28 10:21:10;;;;;;;3.73;1.60;;;23.70;90.90;;;;;;5008998;28;20524;-64
2023/09/28 10:23:35;;;;;;;3.30;1.60;;;23.70;89.90;;;;;;5008216;28;21153;-64
2023/09/28 10:26:18;;;;;;;5.50;1.93;;;23.80;89.00;;;;;;5013947;28;20517;-64
2023/09/28 10:29:07;;;;;;;3.73;1.77;;;24.10;88.00;;;;;;5012044;28;20179;-63
2023/09/28 10:31:35;;;;;;;6.00;1.47;;;24.10;85.30;;;;;;5008795;28;20464;-62
2023/09/28 10:34:02;;;;;;;2.33;1.17;;;24.20;85.60;;;;;;5017977;28;20452;-62
2023/09/28 10:36:30;;;;;;;2.63;1.23;;;24.10;87.50;;;;;;5012135;28;20422;-62
2023/09/28 10:39:16;;;;;;;3.40;1.47;;;24.20;86.40;;;;;;4992330;28;20425;-62
2023/09/28 10:41:49;;;;;;;2.60;1.00;;;24.20;85.50;;;;;;5013161;28;20923;-62
2023/09/28 10:44:19;;;;;;;3.90;1.47;;;24.30;84.30;;;;;;5008915;28;20902;-62
2023/09/28 10:46:48;;;;;;;5.53;1.90;;;24.60;83.50;;;;;;5016135;28;20428;-62
2023/09/28 10:49:21;;;;;;;3.53;1.70;;;24.40;83.70;;;;;;5010143;28;20921;-62
2023/09/28 10:51:47;;;;;;;2.43;1.10;;;24.60;83.70;;;;;;5020140;28;20421;-62
2023/09/28 10:54:13;;;;;;;4.07;1.50;;;24.80;84.10;;;;;;5006495;28;20445;-62
2023/09/28 10:56:39;;;;;;;3.43;1.43;;;25.00;87.30;;;;;;5020912;28;20182;-64
2023/09/28 10:59:07;;;;;;;2.43;1.07;;;25.20;86.60;;;;;;5013252;28;20449;-62
2023/09/28 11:01:39;;;;;;;7.53;1.33;;;25.20;83.00;;;;;;5014203;28;20222;-62
2023/09/28 11:04:04;;;;;;;4.00;1.60;;;25.50;83.10;;;;;;5014706;28;20583;-62
2023/09/28 11:06:30;;;;;;;4.10;1.20;;;25.70;79.90;;;;;;5011182;28;20520;-63
2023/09/28 11:08:57;;;;;;;5.30;1.30;;;25.70;79.00;;;;;;5006883;28;20274;-62
2023/09/28 11:11:23;;;;;;;2.00;0.90;;;25.50;78.90;;;;;;5012762;28;20421;-62
2023/09/28 11:13:49;;;;;;;2.60;1.30;;;25.50;81.10;;;;;;5018028;28;20425;-62
2023/09/28 11:16:17;;;;;;;4.10;1.63;;;25.40;79.70;;;;;;5012665;28;20190;-63
2023/09/28 11:18:42;;;;;;;2.23;1.23;;;25.60;78.10;;;;;;5010934;28;20429;-62
2023/09/28 11:21:09;;;;;;;3.03;1.00;;;25.50;78.00;;;;;;5007453;28;20433;-64
2023/09/28 11:23:34;;;;;;;2.23;1.07;;;25.70;77.10;;;;;;5012472;28;20265;-64
2023/09/28 11:26:01;;;;;;;4.30;1.43;;;25.80;75.00;;;;;;5027328;28;20933;-62
2023/09/28 11:28:27;;;;;;;6.03;1.47;;;25.70;78.70;;;;;;5020871;28;20333;-64
2023/09/28 11:31:10;;;;;;;2.47;1.40;;;26.00;77.30;;;;;;5008839;28;20174;-62
2023/09/28 11:33:39;;;;;;;2.10;1.10;;;26.30;74.40;;;;;;5014586;28;20178;-63
2023/09/28 11:36:07;;;;;;;3.00;1.17;;;26.30;74.20;;;;;;5009319;28;20229;-63
2023/09/28 11:38:33;;;;;;;1.93;1.17;;;26.10;77.50;;;;;;5016950;28;20179;-64
2023/09/28 11:41:01;;;;;;;2.47;1.10;;;26.20;73.80;;;;;;5013452;28;20248;-64
2023/09/28 11:43:27;;;;;;;6.20;1.50;;;26.10;74.40;;;;;;5012835;28;20182;-64
2023/09/28 11:45:53;;;;;;;4.93;1.87;;;26.10;75.00;;;;;;5018197;28;20591;-62
2023/09/28 11:48:20;;;;;;;4.20;1.40;;;26.20;74.20;;;;;;5023614;28;20184;-62
2023/09/28 11:50:47;;;;;;;2.80;1.30;;;26.30;74.40;;;;;;5017951;28;20175;-63
2023/09/28 11:53:14;;;;;;;3.77;1.47;;;26.30;73.70;;;;;;5023639;28;20182;-63
2023/09/28 11:55:41;;;;;;;5.83;1.10;;;26.30;74.60;;;;;;5020991;28;20190;-63
2023/09/28 11:58:08;;;;;;;3.57;1.27;;;26.30;78.70;;;;;;5024977;28;20193;-63
2023/09/28 12:00:35;;;;;;;2.77;1.23;;;26.40;74.10;;;;;;5012453;28;20187;-63
2023/09/28 12:03:02;;;;;;;6.13;1.30;;;26.50;73.20;;;;;;5013976;28;20293;-63
2023/09/28 12:05:28;;;;;;;3.87;1.20;;;26.50;74.50;;;;;;4992985;28;20206;-62
2023/09/28 12:07:55;;;;;;;3.67;1.20;;;26.60;75.40;;;;;;5014211;28;20192;-63
2023/09/28 12:10:21;;;;;;;3.40;1.20;;;26.60;76.30;;;;;;5017817;28;20256;-63
2023/09/28 12:12:46;;;;;;;2.57;0.93;;;26.60;74.70;;;;;;5018849;28;20182;-62
2023/09/28 12:15:14;;;;;;;4.60;1.60;;;26.70;73.90;;;;;;5018396;28;20216;-63
2023/09/28 12:17:40;;;;;;;3.70;1.40;;;26.50;73.30;;;;;;5015279;28;20588;-62
2023/09/28 12:20:14;;;;;;;4.10;1.90;;;26.40;72.50;;;;;;5012103;28;20192;-63
2023/09/28 12:22:41;;;;;;;4.90;1.40;;;26.60;73.10;;;;;;5011617;28;20194;-62
2023/09/28 12:25:08;;;;;;;3.87;1.50;;;26.80;72.80;;;;;;5013004;28;20224;-63
2023/09/28 12:27:38;;;;;;;3.10;1.33;;;27.00;76.30;;;;;;5028758;28;20186;-63
2023/09/28 12:30:06;;;;;;;3.22;1.50;;;27.30;74.50;;;;;;5013664;28;20187;-63
2023/09/28 12:32:32;;;;;;;4.03;1.10;;;27.40;73.30;;;;;;5013093;28;20681;-63
2023/09/28 12:35:00;;;;;;;4.25;1.05;;;27.30;69.10;;;;;;5005741;28;20684;-63
2023/09/28 12:37:26;;;;;;;3.20;1.03;;;27.00;71.30;;;;;;5004097;28;20289;-63
2023/09/28 12:39:53;;;;;;;3.65;1.00;;;27.10;72.90;;;;;;5015242;28;20973;-63
2023/09/28 12:42:24;;;;;;;2.30;1.10;;;27.30;71.30;;;;;;5015379;28;20269;-63
2023/09/28 12:44:50;;;;;;;2.60;1.27;;;27.30;73.10;;;;;;5013579;28;20218;-63